createdAt,value
2018-05-04T15:18:34.915Z,5.00
2018-05-04T15:21:45.605Z,5.68
2018-05-04T15:24:55.941Z,4.68
2018-05-04T15:28:05.340Z,4.40
2018-05-04T15:31:16.003Z,5.35
2018-05-04T15:34:26.085Z,4.62
2018-05-04T15:37:36.375Z,6.37
2018-05-04T15:40:46.825Z,5.20
2018-05-04T15:43:56.980Z,4.72
2018-05-04T15:47:07.368Z,4.18
2018-05-04T15:50:23.011Z,5.55
2018-05-04T15:53:33.597Z,4.37
2018-05-04T15:56:46.870Z,5.70
2018-05-04T16:00:00.990Z,5.40
2018-05-04T16:03:11.021Z,4.70
2018-05-04T16:06:21.487Z,5.35
2018-05-04T16:09:31.767Z,6.65
2018-05-04T16:12:42.582Z,4.93
2018-05-04T16:15:54.018Z,5.57
2018-05-04T16:19:03.743Z,3.85
2018-05-04T16:22:13.880Z,4.12
2018-05-04T16:25:24.279Z,4.20
2018-05-04T16:28:34.163Z,5.00
2018-05-04T16:31:44.831Z,5.70
2018-05-04T16:34:54.667Z,4.15
2018-05-04T16:38:04.697Z,4.62
2018-05-04T16:41:15.073Z,4.93
2018-05-04T16:44:25.635Z,4.05
2018-05-04T16:51:12.959Z,3.33
2018-05-04T16:54:23.709Z,5.80
2018-05-04T16:57:34.289Z,3.92
2018-05-04T17:00:45.393Z,5.12
2018-05-04T17:03:56.015Z,4.40
2018-05-04T17:07:05.971Z,4.50
2018-05-04T17:10:15.967Z,5.40
2018-05-04T17:13:26.335Z,5.75
2018-05-04T17:16:36.818Z,3.37
2018-05-04T17:19:46.545Z,4.97
2018-05-04T17:22:57.378Z,3.70
2018-05-04T17:26:07.738Z,4.40
2018-05-04T17:29:18.501Z,2.78
2018-05-04T17:32:28.596Z,2.78
2018-05-04T17:35:38.175Z,3.28
2018-05-04T17:38:48.926Z,2.97
2018-05-04T17:41:58.904Z,4.03
2018-05-04T17:45:08.774Z,3.25
2018-05-04T17:48:18.519Z,3.90
2018-05-04T17:51:28.732Z,2.90
2018-05-04T17:54:38.491Z,3.25
2018-05-04T17:57:49.122Z,4.28
2018-05-04T18:00:59.106Z,3.47
2018-05-04T18:04:09.259Z,3.17
2018-05-04T18:07:19.267Z,5.70
2018-05-04T18:10:29.481Z,5.20
2018-05-04T18:13:43.173Z,4.97
2018-05-04T18:16:53.880Z,3.55
2018-05-04T18:20:04.387Z,4.07
2018-05-04T18:23:14.327Z,3.55
2018-05-04T18:26:24.202Z,3.92
2018-05-04T18:29:35.005Z,4.37
2018-05-04T18:32:46.177Z,3.87
2018-05-04T18:35:55.990Z,3.40
2018-05-04T18:39:07.330Z,3.90
2018-05-04T18:42:17.138Z,4.37
2018-05-04T18:45:27.335Z,4.20
2018-05-04T18:48:37.527Z,3.42
2018-05-04T18:51:47.769Z,4.62
2018-05-04T18:54:59.221Z,4.28
2018-05-04T18:58:09.420Z,4.35
2018-05-04T19:01:19.738Z,5.72
2018-05-04T19:04:30.023Z,3.55
2018-05-04T19:07:40.541Z,4.22
2018-05-04T19:10:52.285Z,4.07
2018-05-04T19:14:02.980Z,6.25
2018-05-04T19:17:12.999Z,3.97
2018-05-04T19:20:25.151Z,4.45
2018-05-04T19:23:36.003Z,3.87
2018-05-04T19:26:45.848Z,3.87
2018-05-04T19:29:55.835Z,5.05
2018-05-04T19:33:05.754Z,3.53
2018-05-04T19:36:15.838Z,6.05
2018-05-04T19:39:26.639Z,4.07
2018-05-04T19:42:37.803Z,5.60
2018-05-04T19:45:47.929Z,4.07
2018-05-04T19:48:59.353Z,4.72
2018-05-04T19:52:09.401Z,5.47
2018-05-04T19:55:19.174Z,5.15
2018-05-04T19:58:29.585Z,4.43
2018-05-04T20:01:40.313Z,5.93
2018-05-04T20:04:50.074Z,5.30
2018-05-04T20:08:00.898Z,5.25
2018-05-04T20:11:11.037Z,5.32
2018-05-04T20:14:20.989Z,6.03
2018-05-04T20:17:30.929Z,5.80
2018-05-04T20:20:40.835Z,4.80
2018-05-04T20:23:51.558Z,5.57
2018-05-04T20:27:02.122Z,5.35
2018-05-04T20:30:12.162Z,5.05
2018-05-04T20:33:22.061Z,5.85
2018-05-04T20:36:32.265Z,5.22
2018-05-04T20:39:42.639Z,4.80
2018-05-04T20:42:53.281Z,4.30
2018-05-04T20:46:04.478Z,4.25
2018-05-04T20:49:14.954Z,4.87
2018-05-04T20:52:24.891Z,6.07
2018-05-04T20:55:34.966Z,10.77
2018-05-04T20:58:45.233Z,13.93
2018-05-04T21:01:55.117Z,7.05
2018-05-04T21:05:05.036Z,6.72
2018-05-04T21:08:15.150Z,8.88
2018-05-04T21:11:25.733Z,8.27
2018-05-04T21:14:36.534Z,9.70
2018-05-04T21:17:46.738Z,7.70
2018-05-04T21:20:57.143Z,6.43
2018-05-04T21:24:07.071Z,7.15
2018-05-04T21:27:17.230Z,5.78
2018-05-04T21:30:27.185Z,5.50
2018-05-04T21:33:37.856Z,6.70
2018-05-04T21:36:47.742Z,5.30
2018-05-04T21:39:57.743Z,5.15
2018-05-04T21:43:08.344Z,4.35
2018-05-04T21:46:18.718Z,4.25
2018-05-04T21:49:29.291Z,6.43
2018-05-04T21:52:39.171Z,7.07
2018-05-04T21:55:49.431Z,6.53
2018-05-04T21:58:59.754Z,5.30
2018-05-04T22:02:10.367Z,6.07
2018-05-04T22:05:21.064Z,6.35
2018-05-04T22:08:31.391Z,6.37
2018-05-04T22:11:41.271Z,6.65
2018-05-04T22:14:50.913Z,6.12
2018-05-04T22:18:01.376Z,7.35
2018-05-04T22:21:11.664Z,5.25
2018-05-04T22:24:22.177Z,5.03
2018-05-04T22:27:32.146Z,6.68
2018-05-04T22:30:41.977Z,7.30
2018-05-04T22:33:52.825Z,4.43
2018-05-04T22:37:03.552Z,5.53
2018-05-04T22:40:13.645Z,6.37
2018-05-04T22:43:24.502Z,4.32
2018-05-04T22:46:34.393Z,4.97
2018-05-04T22:49:45.626Z,4.18
2018-05-04T22:52:55.865Z,4.82
2018-05-04T22:56:05.976Z,4.80
2018-05-04T22:59:16.253Z,4.82
2018-05-04T23:02:26.188Z,5.82
2018-05-04T23:05:36.385Z,5.47
2018-05-04T23:08:47.053Z,5.25
2018-05-04T23:11:57.170Z,5.00
2018-05-04T23:15:07.340Z,5.37
2018-05-04T23:18:17.433Z,4.57
2018-05-04T23:21:27.229Z,5.45
2018-05-04T23:24:38.747Z,6.43
2018-05-04T23:27:49.149Z,4.72
2018-05-04T23:30:59.688Z,4.55
2018-05-04T23:34:10.678Z,4.78
2018-05-04T23:37:20.765Z,4.50
2018-05-04T23:40:31.182Z,4.87
2018-05-04T23:43:41.030Z,5.47
2018-05-04T23:46:50.960Z,5.62
2018-05-04T23:50:00.813Z,5.30
2018-05-04T23:53:11.547Z,5.22
2018-05-04T23:56:21.537Z,5.68
2018-05-04T23:59:32.101Z,4.78
